Time;durP1;ratioP1;P1;durP2;ratioP2;P2;SDS_P1;SDS_P2;PMS_P1;PMS_P2;Temp;Humidity;BMP_temperature;BMP_pressure;BME280_temperature;BME280_humidity;BME280_pressure;Samples;Min_cycle;Max_cycle;Signal;HPM_P1;HPM_P2
2022/03/24 00:00:51;;;;;;;25.47;15.67;;;;;;;2.49;100.00;97486.28;5032250;28;20475;-74
2022/03/24 00:03:18;;;;;;;30.40;16.70;;;;;;;2.57;100.00;97483.25;5034914;28;20435;-74
2022/03/24 00:05:51;;;;;;;29.93;18.30;;;;;;;2.30;100.00;97446.69;5033277;28;20470;-74
2022/03/24 00:08:18;;;;;;;26.70;19.23;;;;;;;2.20;100.00;97457.81;5033501;28;20491;-74
2022/03/24 00:10:44;;;;;;;30.87;19.87;;;;;;;2.21;100.00;97461.22;5034592;28;20479;-74
2022/03/24 00:13:11;;;;;;;28.83;17.17;;;;;;;2.14;100.00;97466.63;5033371;28;20540;-74
2022/03/24 00:15:38;;;;;;;27.73;18.80;;;;;;;2.15;100.00;97473.41;5033133;28;20570;-74
2022/03/24 00:18:05;;;;;;;30.40;19.30;;;;;;;2.15;100.00;97476.03;5033325;28;20446;-74
2022/03/24 00:20:32;;;;;;;30.23;18.30;;;;;;;2.04;100.00;97469.09;5033119;28;20519;-74
2022/03/24 00:22:59;;;;;;;29.03;16.93;;;;;;;2.06;100.00;97472.25;5033201;28;20783;-74
2022/03/24 00:25:26;;;;;;;27.13;16.40;;;;;;;1.80;100.00;97475.56;5027352;28;20563;-74
2022/03/24 00:27:53;;;;;;;26.77;15.50;;;;;;;1.46;100.00;97450.34;5013279;28;20440;-74
2022/03/24 00:30:19;;;;;;;37.00;15.07;;;;;;;1.78;100.00;97468.78;5032407;28;20913;-74
2022/03/24 00:32:46;;;;;;;23.00;13.37;;;;;;;1.70;100.00;97465.78;5027224;28;20444;-74
2022/03/24 00:35:14;;;;;;;27.37;15.03;;;;;;;1.54;100.00;97443.97;5053444;28;20481;-74
2022/03/24 00:37:41;;;;;;;19.07;12.93;;;;;;;1.90;100.00;97470.50;5032864;28;20470;-74
2022/03/24 00:40:10;;;;;;;23.07;12.27;;;;;;;1.75;100.00;97463.28;5032856;28;20482;-74
2022/03/24 00:42:37;;;;;;;28.43;14.63;;;;;;;1.81;100.00;97474.53;5032887;28;20475;-74
2022/03/24 00:45:06;;;;;;;19.10;12.83;;;;;;;1.82;100.00;97473.50;5034068;28;20494;-74
2022/03/24 00:47:34;;;;;;;23.43;11.47;;;;;;;1.61;100.00;97456.84;5030910;28;20444;-74
2022/03/24 00:50:07;;;;;;;15.50;11.90;;;;;;;1.55;100.00;97463.78;5028631;28;21075;-74
2022/03/24 00:52:41;;;;;;;19.40;12.97;;;;;;;1.60;100.00;97465.66;5048861;28;20427;-74
2022/03/24 00:55:12;;;;;;;19.57;12.70;;;;;;;1.62;100.00;97459.19;5032904;28;20447;-74
2022/03/24 00:57:40;;;;;;;31.60;13.57;;;;;;;1.24;100.00;97430.50;5032790;28;20447;-74
2022/03/24 01:00:10;;;;;;;22.60;12.80;;;;;;;1.28;100.00;97442.03;5032674;28;20424;-74
2022/03/24 01:02:37;;;;;;;21.93;13.07;;;;;;;1.28;100.00;97436.81;5019504;28;20432;-74
2022/03/24 01:05:08;;;;;;;15.73;11.17;;;;;;;1.31;100.00;97450.16;5033959;28;20462;-74
2022/03/24 01:07:35;;;;;;;19.00;12.00;;;;;;;1.26;100.00;97449.28;5032383;28;20440;-74
2022/03/24 01:10:04;;;;;;;20.83;13.37;;;;;;;1.23;100.00;97450.56;5032290;28;20517;-73
2022/03/24 01:12:31;;;;;;;19.40;12.83;;;;;;;0.98;100.00;97445.75;5030974;28;20446;-73
2022/03/24 01:14:58;;;;;;;20.33;11.83;;;;;;;1.13;100.00;97447.81;5032334;28;21025;-73
2022/03/24 01:17:26;;;;;;;19.23;14.00;;;;;;;1.16;100.00;97437.69;5056284;28;20482;-73
2022/03/24 01:19:53;;;;;;;16.03;11.83;;;;;;;0.72;100.00;97408.13;5048959;28;20443;-73
2022/03/24 01:22:20;;;;;;;23.83;12.33;;;;;;;1.05;100.00;97437.78;5031895;28;21288;-73
2022/03/24 01:24:48;;;;;;;16.40;12.80;;;;;;;0.84;100.00;97410.66;5039354;28;20462;-73
2022/03/24 01:27:16;;;;;;;17.00;11.73;;;;;;;0.61;100.00;97382.16;5029268;28;20435;-73
2022/03/24 01:29:44;;;;;;;22.27;12.40;;;;;;;0.86;100.00;97434.63;5026247;28;20489;-73
2022/03/24 01:32:12;;;;;;;13.20;10.20;;;;;;;0.78;100.00;97432.41;5033354;28;20470;-73
2022/03/24 01:34:39;;;;;;;14.37;10.10;;;;;;;0.49;100.00;97424.66;5018763;28;20465;-73
2022/03/24 01:37:06;;;;;;;18.53;11.87;;;;;;;0.52;100.00;97405.97;5031987;28;20469;-73
2022/03/24 01:39:34;;;;;;;16.63;10.70;;;;;;;0.71;100.00;97432.56;5032178;28;20455;-73
2022/03/24 01:42:01;;;;;;;17.27;10.90;;;;;;;0.48;100.00;97394.44;5031739;28;20459;-73
2022/03/24 01:44:29;;;;;;;14.43;10.20;;;;;;;0.79;100.00;97394.94;5031658;28;20438;-73
2022/03/24 01:46:59;;;;;;;15.17;11.43;;;;;;;1.06;100.00;97421.13;5031632;28;20986;-73
2022/03/24 01:49:28;;;;;;;15.00;11.30;;;;;;;1.13;100.00;97419.94;5031657;28;20459;-73
2022/03/24 01:51:55;;;;;;;20.50;11.53;;;;;;;0.71;100.00;97396.13;5031400;28;20464;-73
2022/03/24 01:54:23;;;;;;;13.70;10.13;;;;;;;0.80;100.00;97389.53;5031500;28;20495;-73
2022/03/24 01:56:52;;;;;;;11.20;9.30;;;;;;;0.85;100.00;97428.63;5031421;28;20506;-73
2022/03/24 01:59:20;;;;;;;12.27;10.20;;;;;;;0.72;100.00;97430.75;5031365;28;20788;-73
2022/03/24 02:01:48;;;;;;;14.17;10.03;;;;;;;0.73;100.00;97419.31;5032755;28;20428;-73
2022/03/24 02:04:15;;;;;;;17.03;10.13;;;;;;;0.50;100.00;97409.81;5031343;28;20438;-73
2022/03/24 02:06:42;;;;;;;15.10;11.30;;;;;;;0.62;100.00;97422.78;5047982;28;20497;-73
2022/03/24 02:09:10;;;;;;;11.37;9.83;;;;;;;0.29;100.00;97377.50;5031158;28;20982;-73
2022/03/24 02:11:37;;;;;;;18.07;11.40;;;;;;;0.19;100.00;97385.09;5031082;28;20495;-73
2022/03/24 02:14:05;;;;;;;19.63;11.60;;;;;;;0.37;100.00;97417.91;5031080;28;20447;-73
2022/03/24 02:16:34;;;;;;;20.13;9.30;;;;;;;0.31;100.00;97418.88;5032404;28;20446;-73
2022/03/24 02:19:13;;;;;;;15.47;10.60;;;;;;;0.40;100.00;97420.03;5031126;28;20470;-73
2022/03/24 02:21:40;;;;;;;11.87;9.30;;;;;;;0.35;100.00;97406.97;5030999;28;20442;-73
2022/03/24 02:24:08;;;;;;;15.80;10.03;;;;;;;0.52;100.00;97429.38;5030680;28;20478;-73
2022/03/24 02:26:36;;;;;;;17.90;12.20;;;;;;;0.48;100.00;97423.06;5030862;28;20586;-73
2022/03/24 02:29:06;;;;;;;20.97;10.97;;;;;;;0.50;100.00;97413.22;5032145;28;20455;-73
2022/03/24 02:31:34;;;;;;;12.60;10.50;;;;;;;0.29;100.00;97429.50;5027159;28;20510;-73
2022/03/24 02:36:47;;;;;;;14.83;9.40;;;;;;;0.10;100.00;97389.88;5019117;28;20456;-73
2022/03/24 02:39:14;;;;;;;14.07;12.30;;;;;;;0.31;100.00;97411.84;5030649;28;20444;-73
2022/03/24 02:41:51;;;;;;;13.93;10.80;;;;;;;0.34;100.00;97418.41;5030698;28;20451;-73
2022/03/24 02:44:19;;;;;;;13.80;10.63;;;;;;;0.27;100.00;97397.75;5030410;28;20959;-73
2022/03/24 02:46:47;;;;;;;20.70;13.17;;;;;;;0.39;100.00;97405.47;5031921;28;20433;-73
2022/03/24 02:49:19;;;;;;;14.40;10.53;;;;;;;0.32;100.00;97403.03;5030481;28;21018;-73
2022/03/24 02:51:46;;;;;;;17.33;12.40;;;;;;;0.26;100.00;97407.34;5032198;28;20558;-73
2022/03/24 02:54:13;;;;;;;15.33;10.20;;;;;;;0.34;100.00;97406.19;5032237;28;20431;-73
2022/03/24 02:56:42;;;;;;;24.80;11.70;;;;;;;0.16;100.00;97380.38;5030702;28;20450;-72
2022/03/24 02:59:10;;;;;;;13.90;10.10;;;;;;;0.10;100.00;97409.91;5030692;28;20438;-73
2022/03/24 03:01:41;;;;;;;14.07;10.20;;;;;;;-0.18;100.00;97393.25;5030421;28;20936;-73
2022/03/24 03:04:09;;;;;;;16.33;11.40;;;;;;;-0.04;100.00;97404.97;5030847;28;20560;-73
2022/03/24 03:06:37;;;;;;;19.53;11.40;;;;;;;-0.15;100.00;97402.41;5030520;28;20793;-73
2022/03/24 03:09:04;;;;;;;13.47;10.47;;;;;;;-0.25;100.00;97408.22;5030356;28;20440;-73
2022/03/24 03:11:33;;;;;;;12.17;10.00;;;;;;;0.01;100.00;97398.31;5030215;28;20479;-72
2022/03/24 03:14:00;;;;;;;15.90;11.57;;;;;;;-0.10;100.00;97412.91;5047066;28;20440;-73
2022/03/24 03:16:28;;;;;;;14.77;11.27;;;;;;;-0.20;100.00;97394.53;5030243;28;20448;-73
2022/03/24 03:18:55;;;;;;;14.03;11.10;;;;;;;-0.23;100.00;97407.97;5030051;28;20447;-73
2022/03/24 03:21:22;;;;;;;15.20;10.93;;;;;;;-0.65;100.00;97408.97;5017282;28;20440;-73
2022/03/24 03:23:49;;;;;;;12.47;11.23;;;;;;;-0.77;100.00;97415.97;5031281;28;20432;-74
2022/03/24 03:26:17;;;;;;;15.70;11.53;;;;;;;-0.65;100.00;97385.59;5030008;28;20537;-73
2022/03/24 03:28:44;;;;;;;21.13;14.67;;;;;;;-0.66;100.00;97394.41;5030022;28;20965;-73
2022/03/24 03:31:11;;;;;;;22.20;15.70;;;;;;;-0.45;100.00;97413.78;5013538;28;20466;-73
2022/03/24 03:33:38;;;;;;;19.60;14.67;;;;;;;-0.75;100.00;97387.19;5022337;28;20619;-73
2022/03/24 03:36:05;;;;;;;24.20;13.63;;;;;;;-0.76;100.00;97416.75;5057162;28;20889;-73
2022/03/24 03:38:33;;;;;;;14.73;11.70;;;;;;;-1.00;100.00;97421.13;5029951;28;21266;-73
2022/03/24 03:41:02;;;;;;;15.27;10.23;;;;;;;-1.10;100.00;97416.50;5031267;28;20443;-73
2022/03/24 03:43:29;;;;;;;14.80;10.20;;;;;;;-1.11;100.00;97422.69;5021891;28;20423;-74
2022/03/24 03:45:56;;;;;;;23.10;10.57;;;;;;;-0.80;100.00;97424.22;5025306;28;20542;-73
2022/03/24 03:48:24;;;;;;;27.33;11.97;;;;;;;-0.93;100.00;97386.28;5030034;28;20431;-74
2022/03/24 03:50:51;;;;;;;17.17;12.03;;;;;;;-0.72;100.00;97407.47;5030003;28;20473;-73
2022/03/24 03:53:18;;;;;;;14.87;10.90;;;;;;;-0.52;100.00;97420.13;5031375;28;20431;-74
2022/03/24 03:55:45;;;;;;;28.17;11.67;;;;;;;-0.50;100.00;97424.06;5013510;28;20571;-74
2022/03/24 03:58:12;;;;;;;17.33;12.40;;;;;;;-0.38;100.00;97409.25;5029948;28;20501;-73
2022/03/24 04:00:55;;;;;;;12.90;11.50;;;;;;;-0.32;100.00;97425.72;5010889;28;20444;-74
2022/03/24 04:03:28;;;;;;;14.17;11.87;;;;;;;-0.45;100.00;97403.38;5026605;28;20466;-73
2022/03/24 04:06:01;;;;;;;19.17;12.27;;;;;;;-0.39;100.00;97430.28;5026480;28;20519;-74
2022/03/24 04:08:28;;;;;;;16.20;11.90;;;;;;;-0.27;100.00;97423.22;5023755;28;20439;-73
2022/03/24 04:10:55;;;;;;;13.10;10.40;;;;;;;-0.80;100.00;97400.03;5029740;28;20509;-74
2022/03/24 04:13:22;;;;;;;17.47;12.17;;;;;;;-0.77;100.00;97400.38;5029775;28;20435;-74
2022/03/24 04:15:53;;;;;;;21.37;12.80;;;;;;;-0.73;100.00;97426.69;5062985;28;20846;-74
2022/03/24 04:18:22;;;;;;;15.73;11.10;;;;;;;-0.85;100.00;97424.06;5029660;28;20438;-73
2022/03/24 04:20:49;;;;;;;16.37;11.97;;;;;;;-0.82;100.00;97422.81;5031282;28;20469;-74
2022/03/24 04:23:17;;;;;;;19.33;12.80;;;;;;;-1.00;100.00;97414.16;5029627;28;20500;-74
2022/03/24 04:25:45;;;;;;;17.07;11.10;;;;;;;-0.82;100.00;97425.44;5029657;28;20476;-73
2022/03/24 04:28:14;;;;;;;23.83;13.67;;;;;;;-0.95;100.00;97421.25;5013292;28;20954;-74
2022/03/24 04:30:43;;;;;;;19.73;12.77;;;;;;;-0.82;100.00;97433.22;5030902;28;20931;-74
2022/03/24 04:33:10;;;;;;;18.37;11.00;;;;;;;-0.82;100.00;97422.81;5042124;28;20490;-73
2022/03/24 04:35:40;;;;;;;16.67;12.43;;;;;;;-0.79;100.00;97418.00;5026162;28;20518;-74
2022/03/24 04:38:08;;;;;;;19.13;11.80;;;;;;;-1.12;100.00;97382.22;5027252;28;20441;-74
2022/03/24 04:40:35;;;;;;;20.30;13.10;;;;;;;-0.84;100.00;97404.09;5029483;28;20435;-72
2022/03/24 04:43:04;;;;;;;19.07;12.13;;;;;;;-0.82;100.00;97404.66;5047469;28;20476;-73
2022/03/24 04:45:33;;;;;;;17.40;11.97;;;;;;;-1.18;100.00;97392.72;5035937;28;20501;-73
2022/03/24 04:48:01;;;;;;;19.50;12.80;;;;;;;-1.20;100.00;97374.78;5033004;28;20970;-73
2022/03/24 04:50:30;;;;;;;19.23;13.33;;;;;;;-0.79;100.00;97428.38;5033916;28;20440;-73
2022/03/24 04:52:57;;;;;;;16.80;12.17;;;;;;;-0.82;100.00;97425.44;5027173;28;20999;-73
2022/03/24 04:55:24;;;;;;;13.10;11.50;;;;;;;-0.95;100.00;97419.44;5014830;28;20835;-73
2022/03/24 04:57:51;;;;;;;25.97;20.00;;;;;;;-0.98;100.00;97434.69;5021766;28;20492;-74
2022/03/24 05:00:19;;;;;;;40.27;29.17;;;;;;;-1.01;100.00;97435.91;5033562;28;20431;-74
2022/03/24 05:02:49;;;;;;;42.13;29.53;;;;;;;-1.17;100.00;97399.47;5034169;28;20423;-74
2022/03/24 05:05:16;;;;;;;44.50;29.33;;;;;;;-0.82;100.00;97435.81;5038514;28;20454;-74
2022/03/24 05:07:43;;;;;;;43.53;27.67;;;;;;;-0.95;100.00;97431.63;5033458;28;20432;-73
2022/03/24 05:10:10;;;;;;;42.37;28.17;;;;;;;-1.17;100.00;97410.63;5033611;28;20687;-74
2022/03/24 05:12:39;;;;;;;30.50;23.60;;;;;;;-1.18;100.00;97439.41;5033677;28;20514;-74
2022/03/24 05:15:11;;;;;;;34.13;24.73;;;;;;;-1.28;100.00;97430.34;5033385;28;20463;-73
2022/03/24 05:17:40;;;;;;;41.50;24.10;;;;;;;-1.22;100.00;97403.50;5034686;28;20435;-74
2022/03/24 05:20:07;;;;;;;39.67;27.10;;;;;;;-0.97;100.00;97423.28;5033258;28;20424;-74
2022/03/24 05:22:36;;;;;;;29.17;20.13;;;;;;;-1.10;100.00;97403.53;5023204;28;20432;-74
2022/03/24 05:25:05;;;;;;;30.37;22.47;;;;;;;-0.66;100.00;97435.94;5009395;28;20503;-74
2022/03/24 05:27:32;;;;;;;28.70;19.00;;;;;;;-0.68;100.00;97445.75;5031308;28;20446;-74
2022/03/24 05:29:59;;;;;;;30.83;19.03;;;;;;;-0.68;100.00;97442.34;5014547;28;20495;-74
2022/03/24 05:32:27;;;;;;;27.27;18.03;;;;;;;-1.52;100.00;97442.47;5024144;28;20546;-74
2022/03/24 05:34:54;;;;;;;21.20;14.60;;;;;;;-1.64;100.00;97433.06;5013975;28;20460;-74
2022/03/24 05:37:21;;;;;;;21.33;12.63;;;;;;;-1.54;100.00;97431.53;5023444;28;21018;-74
2022/03/24 05:39:48;;;;;;;16.87;12.10;;;;;;;-1.25;100.00;97434.31;5031751;28;20854;-74
2022/03/24 05:42:15;;;;;;;14.23;11.77;;;;;;;-1.31;100.00;97414.47;5031878;28;20523;-74
2022/03/24 05:44:42;;;;;;;17.97;13.90;;;;;;;-1.21;100.00;97417.28;5031670;28;20563;-74
2022/03/24 05:47:08;;;;;;;21.00;13.80;;;;;;;-1.02;100.00;97425.78;5031788;28;20504;-74
2022/03/24 05:49:35;;;;;;;18.90;13.60;;;;;;;-0.84;100.00;97441.22;5018265;28;20530;-74
2022/03/24 05:52:21;;;;;;;28.50;14.30;;;;;;;-1.09;100.00;97414.69;5018573;28;20496;-74
2022/03/24 05:54:48;;;;;;;18.77;13.17;;;;;;;-0.89;100.00;97415.16;5031452;28;21062;-74
2022/03/24 05:57:15;;;;;;;17.40;13.23;;;;;;;-0.96;100.00;97428.25;5016213;28;20480;-74
2022/03/24 05:59:41;;;;;;;20.40;15.23;;;;;;;-1.14;100.00;97407.59;5014844;28;20447;-74
2022/03/24 06:02:08;;;;;;;22.77;14.57;;;;;;;-1.00;100.00;97440.09;5031340;28;20489;-74
2022/03/24 06:04:35;;;;;;;18.50;14.30;;;;;;;-1.03;100.00;97432.75;5031484;28;20482;-74
2022/03/24 06:07:04;;;;;;;27.80;14.07;;;;;;;-0.94;100.00;97444.38;5031189;28;20443;-74
2022/03/24 06:09:31;;;;;;;21.50;14.10;;;;;;;-0.62;100.00;97460.44;5032357;28;20960;-74
2022/03/24 06:11:58;;;;;;;18.90;13.97;;;;;;;-0.54;100.00;97440.31;5031168;28;20569;-74
2022/03/24 06:14:25;;;;;;;19.40;13.53;;;;;;;-0.36;100.00;97461.78;5031143;28;21004;-74
2022/03/24 06:16:53;;;;;;;25.23;14.47;;;;;;;-0.16;100.00;97458.00;5030735;28;20978;-75
2022/03/24 06:19:20;;;;;;;21.90;16.10;;;;;;;-0.05;100.00;97442.38;5031160;28;20435;-74
2022/03/24 06:21:46;;;;;;;18.23;13.30;;;;;;;0.13;100.00;97454.41;5032308;28;20456;-74
2022/03/24 06:24:13;;;;;;;24.60;14.00;;;;;;;0.25;100.00;97460.38;5031059;28;20470;-74
2022/03/24 06:26:40;;;;;;;22.50;17.13;;;;;;;0.09;100.00;97462.91;5030713;28;20455;-74
2022/03/24 06:29:10;;;;;;;24.30;16.07;;;;;;;-0.02;100.00;97443.72;5021272;28;20440;-73
2022/03/24 06:31:37;;;;;;;21.17;15.90;;;;;;;-0.13;100.00;97436.78;5014647;28;20471;-73
2022/03/24 06:34:04;;;;;;;22.90;16.70;;;;;;;0.12;100.00;97463.22;5003522;28;20524;-73
2022/03/24 06:36:35;;;;;;;23.23;16.80;;;;;;;0.14;100.00;97468.22;5029428;28;20440;-73
2022/03/24 06:39:03;;;;;;;22.03;16.00;;;;;;;0.09;100.00;97450.69;5030760;28;20444;-73
2022/03/24 06:41:30;;;;;;;24.90;18.40;;;;;;;0.29;100.00;97461.50;5030666;28;20438;-73
2022/03/24 06:43:57;;;;;;;30.13;19.50;;;;;;;0.51;100.00;97440.03;5031074;28;20451;-72
2022/03/24 06:46:25;;;;;;;28.90;20.27;;;;;;;0.88;100.00;97469.03;5031804;28;20829;-72
2022/03/24 06:48:52;;;;;;;32.00;21.80;;;;;;;0.68;100.00;97420.03;5030481;28;20458;-73
2022/03/24 06:51:19;;;;;;;32.57;21.17;;;;;;;0.83;100.00;97429.91;5031776;28;20877;-73
2022/03/24 06:53:46;;;;;;;29.27;20.07;;;;;;;1.19;100.00;97447.63;5031779;28;20534;-73
2022/03/24 06:56:12;;;;;;;28.20;19.23;;;;;;;1.25;100.00;97437.31;5017015;28;20559;-73
2022/03/24 06:58:39;;;;;;;24.30;20.20;;;;;;;1.52;100.00;97458.25;5030497;28;20482;-73
2022/03/24 07:01:06;;;;;;;26.87;19.10;;;;;;;1.83;100.00;97452.41;5017306;28;21023;-73
2022/03/24 07:03:33;;;;;;;22.33;18.57;;;;;;;2.23;100.00;97469.56;5018196;28;20471;-74
2022/03/24 07:05:59;;;;;;;25.23;18.30;;;;;;;2.36;100.00;97474.41;5026515;28;20506;-74
2022/03/24 07:08:26;;;;;;;23.03;19.30;;;;;;;2.66;100.00;97474.72;5027545;28;20444;-74
2022/03/24 07:10:53;;;;;;;24.70;19.10;;;;;;;2.82;100.00;97441.72;5031377;28;20443;-74
2022/03/24 07:13:20;;;;;;;26.47;19.43;;;;;;;2.85;100.00;97427.38;5016355;28;21224;-74
2022/03/24 07:15:47;;;;;;;27.90;18.63;;;;;;;3.46;100.00;97462.56;5010471;28;20552;-74
2022/03/24 07:18:15;;;;;;;24.20;18.90;;;;;;;3.59;100.00;97422.09;5025948;28;20459;-74
2022/03/24 07:20:42;;;;;;;27.20;20.70;;;;;;;4.01;100.00;97463.91;5022087;28;20461;-74
2022/03/24 07:23:09;;;;;;;25.30;19.70;;;;;;;4.31;100.00;97472.91;5026793;28;20439;-74
2022/03/24 07:25:40;;;;;;;26.67;20.37;;;;;;;4.52;100.00;97479.78;5038020;28;20464;-74
2022/03/24 07:28:07;;;;;;;29.53;19.47;;;;;;;4.89;100.00;97474.34;5012727;28;20433;-74
2022/03/24 07:30:34;;;;;;;29.43;20.70;;;;;;;5.12;100.00;97480.91;5020507;28;20460;-74
2022/03/24 07:33:02;;;;;;;26.13;21.63;;;;;;;5.39;100.00;97478.00;5039859;28;20472;-74
2022/03/24 07:35:31;;;;;;;29.70;20.30;;;;;;;5.57;100.00;97471.44;5011537;28;20539;-74
2022/03/24 07:37:58;;;;;;;25.40;19.37;;;;;;;5.61;100.00;97486.38;5010209;28;20433;-75
2022/03/24 07:40:25;;;;;;;32.53;21.37;;;;;;;5.82;100.00;97458.25;5021232;28;20435;-74
2022/03/24 07:42:54;;;;;;;27.50;21.50;;;;;;;6.01;100.00;97479.50;5031079;28;20956;-74
2022/03/24 07:45:22;;;;;;;26.37;19.73;;;;;;;6.09;100.00;97475.50;5029844;28;20474;-74
2022/03/24 07:48:07;;;;;;;31.70;20.03;;;;;;;6.19;100.00;97483.38;5016632;28;20439;-74
2022/03/24 07:50:39;;;;;;;23.80;18.67;;;;;;;6.21;100.00;97489.13;5029823;28;20878;-74
2022/03/24 07:53:12;;;;;;;24.60;20.70;;;;;;;6.60;100.00;97488.44;5062808;28;20491;-74
2022/03/24 07:55:44;;;;;;;30.83;21.40;;;;;;;7.20;100.00;97484.59;5016548;28;20465;-74
2022/03/24 07:58:12;;;;;;;25.43;20.30;;;;;;;7.39;100.00;97484.72;5027941;28;21226;-74
2022/03/24 08:00:39;;;;;;;26.97;19.57;;;;;;;7.44;99.01;97492.56;5029607;28;20479;-74
2022/03/24 08:03:16;;;;;;;25.90;21.53;;;;;;;7.54;97.50;97483.78;5029693;28;20475;-74
2022/03/24 08:05:45;;;;;;;27.37;21.17;;;;;;;7.64;97.99;97486.31;5058762;28;20523;-74
2022/03/24 08:08:12;;;;;;;24.30;20.17;;;;;;;7.59;93.44;97460.81;5020914;28;20440;-74
2022/03/24 08:10:40;;;;;;;27.47;20.30;;;;;;;8.08;93.72;97486.13;5016060;28;20451;-74
2022/03/24 08:13:08;;;;;;;26.83;20.80;;;;;;;8.02;90.80;97476.72;5029635;28;20467;-74
2022/03/24 08:15:36;;;;;;;27.00;19.77;;;;;;;7.59;87.79;97455.56;5016090;28;20492;-74
2022/03/24 08:18:04;;;;;;;29.77;24.30;;;;;;;7.92;89.75;97450.50;5017686;28;20981;-74
2022/03/24 08:20:32;;;;;;;29.80;20.93;;;;;;;8.12;85.93;97466.03;5028881;28;20448;-74
2022/03/24 08:23:00;;;;;;;27.53;20.60;;;;;;;8.68;87.31;97451.38;5033319;28;20441;-74
2022/03/24 08:25:26;;;;;;;29.07;19.57;;;;;;;8.86;82.92;97461.16;5019931;28;20567;-74
2022/03/24 08:27:53;;;;;;;26.17;20.93;;;;;;;9.23;79.25;97491.19;5033357;28;20440;-74
2022/03/24 08:30:20;;;;;;;28.67;22.50;;;;;;;8.93;78.51;97481.88;5014368;28;20479;-74
2022/03/24 08:32:46;;;;;;;35.50;24.37;;;;;;;8.67;81.86;97466.41;5026851;28;20500;-75
2022/03/24 08:35:14;;;;;;;31.97;23.17;;;;;;;8.32;82.34;97446.59;5020475;28;20547;-75
2022/03/24 08:37:41;;;;;;;34.70;25.20;;;;;;;9.04;80.16;97491.22;5033122;28;20440;-75
2022/03/24 08:40:10;;;;;;;31.53;22.80;;;;;;;8.96;79.35;97476.06;5027060;28;20523;-75
2022/03/24 08:42:37;;;;;;;31.67;24.93;;;;;;;8.73;77.06;97493.50;5029354;28;20433;-75
2022/03/24 08:45:07;;;;;;;36.03;25.20;;;;;;;8.84;76.96;97493.09;5033018;28;20470;-75
2022/03/24 08:47:34;;;;;;;34.73;21.27;;;;;;;8.99;77.22;97470.97;5030473;28;20506;-75
2022/03/24 08:50:01;;;;;;;31.17;22.73;;;;;;;9.52;74.96;97491.78;5012993;28;20456;-74
2022/03/24 08:52:28;;;;;;;30.80;22.50;;;;;;;9.59;74.00;97470.25;5027912;28;20463;-74
2022/03/24 08:54:55;;;;;;;34.27;23.87;;;;;;;9.29;71.46;97490.81;4996668;28;20486;-74
2022/03/24 08:57:28;;;;;;;33.83;21.80;;;;;;;9.43;72.65;97491.63;4999085;28;21004;-74
2022/03/24 08:59:57;;;;;;;24.43;20.87;;;;;;;9.55;75.69;97485.13;5034121;28;20456;-75
2022/03/24 09:02:23;;;;;;;28.83;21.10;;;;;;;10.12;73.19;97491.72;5019356;28;20460;-74
2022/03/24 09:04:50;;;;;;;27.70;20.00;;;;;;;10.04;71.25;97498.50;5022528;28;20452;-75
2022/03/24 09:07:34;;;;;;;25.93;22.23;;;;;;;10.00;70.19;97492.22;5027205;28;20429;-75
2022/03/24 09:10:02;;;;;;;30.30;22.00;;;;;;;10.13;70.40;97480.06;5012542;28;20914;-75
2022/03/24 09:12:29;;;;;;;30.10;21.47;;;;;;;9.73;68.76;97460.50;5033306;28;20457;-75
2022/03/24 09:14:56;;;;;;;29.17;21.67;;;;;;;10.25;69.44;97488.31;5020643;28;20484;-75
2022/03/24 09:17:23;;;;;;;29.30;22.60;;;;;;;10.77;69.29;97490.69;5007413;28;20429;-75
2022/03/24 09:19:49;;;;;;;29.03;23.00;;;;;;;10.98;68.03;97496.31;5019130;28;20994;-75
2022/03/24 09:22:16;;;;;;;31.83;24.47;;;;;;;11.18;68.33;97479.97;5009109;28;20533;-75
2022/03/24 09:24:43;;;;;;;31.37;20.33;;;;;;;11.26;64.64;97468.66;5012418;28;20557;-75
2022/03/24 09:27:09;;;;;;;33.57;20.57;;;;;;;11.38;63.82;97500.66;5013784;28;20500;-75
2022/03/24 09:29:36;;;;;;;28.07;20.20;;;;;;;11.54;59.44;97490.47;5026028;28;20444;-75
2022/03/24 09:32:03;;;;;;;29.40;20.90;;;;;;;11.75;58.01;97498.69;5025362;28;20448;-75
2022/03/24 09:34:30;;;;;;;23.77;19.00;;;;;;;11.92;55.67;97498.03;5027250;28;20439;-75
2022/03/24 09:36:57;;;;;;;21.20;18.97;;;;;;;12.05;54.56;97476.72;5008556;28;20515;-75
2022/03/24 09:39:23;;;;;;;22.87;19.30;;;;;;;12.27;52.66;97502.34;5018917;28;20791;-75
2022/03/24 09:41:50;;;;;;;21.97;18.93;;;;;;;12.40;51.73;97500.66;5023938;28;20422;-75
2022/03/24 09:44:17;;;;;;;22.80;18.93;;;;;;;12.40;51.87;97482.88;5026533;28;20467;-75
2022/03/24 09:46:43;;;;;;;20.90;18.00;;;;;;;12.58;48.65;97504.94;5020532;28;20439;-75
2022/03/24 09:49:15;;;;;;;22.03;19.67;;;;;;;12.57;50.62;97497.28;5029261;28;20453;-75
2022/03/24 09:51:43;;;;;;;23.23;19.00;;;;;;;12.99;47.60;97504.50;5038047;28;20445;-75
2022/03/24 09:54:11;;;;;;;20.00;17.60;;;;;;;12.69;47.68;97508.88;5019645;28;20916;-75
2022/03/24 09:56:41;;;;;;;23.73;20.10;;;;;;;12.69;48.16;97479.66;5015236;28;20515;-75
2022/03/24 09:59:09;;;;;;;22.93;18.90;;;;;;;12.87;45.91;97495.59;5014621;28;20479;-75
2022/03/24 10:01:39;;;;;;;20.00;16.20;;;;;;;12.53;47.31;97475.09;5044971;28;20566;-75
2022/03/24 10:04:13;;;;;;;28.03;18.33;;;;;;;12.84;47.25;97493.56;5008757;28;20526;-75
2022/03/24 10:06:58;;;;;;;19.77;17.60;;;;;;;12.75;46.17;97498.88;5024271;28;20934;-75
2022/03/24 10:09:35;;;;;;;23.07;19.80;;;;;;;12.92;46.17;97464.34;5024462;28;20423;-74
2022/03/24 10:12:03;;;;;;;19.83;17.20;;;;;;;13.10;46.21;97475.78;5027926;28;20541;-74
2022/03/24 10:14:31;;;;;;;20.97;18.87;;;;;;;13.12;45.51;97468.25;5027909;28;20442;-74
2022/03/24 10:17:06;;;;;;;21.07;17.50;;;;;;;13.29;42.93;97489.50;5025081;28;20517;-74
2022/03/24 10:19:34;;;;;;;22.60;19.27;;;;;;;13.05;42.46;97452.00;5024214;28;20528;-74
2022/03/24 10:22:07;;;;;;;24.40;20.27;;;;;;;13.44;41.21;97487.47;5028310;28;20436;-74
2022/03/24 10:24:43;;;;;;;23.10;19.27;;;;;;;13.67;42.13;97488.81;5028077;28;20458;-74
2022/03/24 10:27:13;;;;;;;25.00;18.53;;;;;;;13.86;41.25;97477.81;5018418;28;20503;-74
2022/03/24 10:29:39;;;;;;;22.00;17.87;;;;;;;13.89;39.94;97464.66;5019470;28;20866;-75
2022/03/24 10:32:14;;;;;;;17.53;15.73;;;;;;;14.19;38.99;97484.09;5024144;28;20860;-74
2022/03/24 10:34:43;;;;;;;17.90;16.10;;;;;;;14.44;39.82;97481.63;5012807;28;20533;-75
2022/03/24 10:37:17;;;;;;;18.57;16.67;;;;;;;14.37;38.68;97449.41;5011420;28;20454;-76
2022/03/24 10:39:57;;;;;;;17.20;15.50;;;;;;;14.19;40.58;97430.88;5024674;28;20824;-74
2022/03/24 10:42:27;;;;;;;19.90;16.47;;;;;;;14.47;40.91;97470.34;5024105;28;20520;-75
2022/03/24 10:45:06;;;;;;;17.97;16.03;;;;;;;14.63;38.19;97476.66;5014455;28;20529;-74
2022/03/24 10:48:05;;;;;;;18.37;16.40;;;;;;;14.32;37.87;97478.84;5027460;28;20441;-74
2022/03/24 10:50:40;;;;;;;22.20;16.83;;;;;;;14.19;38.82;97470.00;5023856;28;20922;-74
2022/03/24 10:53:08;;;;;;;24.07;16.30;;;;;;;14.70;39.08;97470.81;5023832;28;20536;-74
2022/03/24 10:55:35;;;;;;;18.10;16.20;;;;;;;14.88;39.32;97468.81;4998623;28;20881;-74
2022/03/24 10:58:04;;;;;;;19.80;15.70;;;;;;;14.70;38.81;97455.63;5062470;28;20445;-74
2022/03/24 11:00:32;;;;;;;23.23;17.30;;;;;;;14.98;39.65;97465.75;5029234;28;20527;-75
2022/03/24 11:03:00;;;;;;;19.33;17.40;;;;;;;15.15;38.26;97462.16;5019138;28;20518;-74
2022/03/24 11:05:27;;;;;;;19.97;17.87;;;;;;;14.51;38.85;97444.63;5017284;28;20459;-74
2022/03/24 11:07:56;;;;;;;20.43;17.57;;;;;;;14.67;38.94;97445.59;5021463;28;20490;-74
2022/03/24 11:10:23;;;;;;;18.80;16.17;;;;;;;14.79;40.30;97455.53;5026868;28;20503;-74
2022/03/24 11:12:54;;;;;;;19.00;16.37;;;;;;;14.92;38.59;97451.84;5010863;28;20491;-74
2022/03/24 11:15:22;;;;;;;17.83;15.93;;;;;;;15.47;37.26;97458.69;5024092;28;20452;-74
2022/03/24 11:17:49;;;;;;;18.40;16.70;;;;;;;15.84;36.57;97451.56;5022366;28;20432;-74
2022/03/24 11:20:23;;;;;;;18.73;16.83;;;;;;;16.30;35.59;97472.81;5018231;28;20430;-74
2022/03/24 11:23:03;;;;;;;21.17;17.20;;;;;;;16.44;35.44;97457.22;5020306;28;20413;-75
2022/03/24 11:25:30;;;;;;;19.70;16.77;;;;;;;16.42;36.86;97430.06;4997601;28;20483;-74